sensor_id;sensor_type;location;lat;lon;timestamp;pressure;altitude;pressure_sealevel;temperature;humidity
50268;BME280;36153;50.960;6.220;2023-02-18T00:00:40;101363.75;;;14.56;65.19
50268;BME280;36153;50.960;6.220;2023-02-18T00:03:42;101360.19;;;14.46;65.61
50268;BME280;36153;50.960;6.220;2023-02-18T00:06:44;101361.84;;;14.36;66.26
50268;BME280;36153;50.960;6.220;2023-02-18T00:09:46;101366.25;;;14.40;66.25
50268;BME280;36153;50.960;6.220;2023-02-18T00:12:47;101367.19;;;14.45;66.02
50268;BME280;36153;50.960;6.220;2023-02-18T00:15:49;101363.72;;;14.46;65.75
50268;BME280;36153;50.960;6.220;2023-02-18T00:18:53;101375.75;;;14.29;66.40
50268;BME280;36153;50.960;6.220;2023-02-18T00:21:55;101357.53;;;14.41;66.21
50268;BME280;36153;50.960;6.220;2023-02-18T00:24:57;101356.59;;;14.33;66.17
50268;BME280;36153;50.960;6.220;2023-02-18T00:27:59;101347.09;;;14.46;66.31
50268;BME280;36153;50.960;6.220;2023-02-18T00:31:22;101337.41;;;14.34;66.51
50268;BME280;36153;50.960;6.220;2023-02-18T00:34:24;101336.41;;;14.23;67.16
50268;BME280;36153;50.960;6.220;2023-02-18T00:37:25;101324.44;;;14.49;66.17
50268;BME280;36153;50.960;6.220;2023-02-18T00:40:26;101323.34;;;14.26;67.07
50268;BME280;36153;50.960;6.220;2023-02-18T00:43:26;101319.06;;;14.34;66.67
50268;BME280;36153;50.960;6.220;2023-02-18T00:46:28;101315.63;;;14.40;66.66
50268;BME280;36153;50.960;6.220;2023-02-18T00:49:29;101310.25;;;14.24;67.21
50268;BME280;36153;50.960;6.220;2023-02-18T00:52:29;101316.56;;;14.49;66.56
50268;BME280;36153;50.960;6.220;2023-02-18T00:55:29;101308.47;;;14.23;67.40
50268;BME280;36153;50.960;6.220;2023-02-18T00:58:30;101307.75;;;14.38;66.97
50268;BME280;36153;50.960;6.220;2023-02-18T01:01:30;101292.78;;;14.26;67.77
50268;BME280;36153;50.960;6.220;2023-02-18T01:04:31;101291.09;;;14.30;67.36
50268;BME280;36153;50.960;6.220;2023-02-18T01:07:31;101287.66;;;14.39;67.04
50268;BME280;36153;50.960;6.220;2023-02-18T01:10:32;101289.34;;;14.30;67.55
50268;BME280;36153;50.960;6.220;2023-02-18T01:13:32;101292.75;;;14.22;67.91
50268;BME280;36153;50.960;6.220;2023-02-18T01:16:33;101290.03;;;14.09;68.21
50268;BME280;36153;50.960;6.220;2023-02-18T01:19:33;101282.97;;;14.02;68.44
50268;BME280;36153;50.960;6.220;2023-02-18T01:22:34;101268.09;;;13.96;68.84
50268;BME280;36153;50.960;6.220;2023-02-18T01:25:35;101279.66;;;14.22;67.77
50268;BME280;36153;50.960;6.220;2023-02-18T01:28:35;101276.03;;;14.06;68.58
50268;BME280;36153;50.960;6.220;2023-02-18T01:31:36;101276.97;;;14.14;68.32
50268;BME280;36153;50.960;6.220;2023-02-18T01:34:36;101275.16;;;14.08;68.64
50268;BME280;36153;50.960;6.220;2023-02-18T01:37:36;101265.63;;;14.13;68.42
50268;BME280;36153;50.960;6.220;2023-02-18T01:40:44;101259.38;;;13.96;69.20
50268;BME280;36153;50.960;6.220;2023-02-18T01:43:45;101268.94;;;13.94;69.17
50268;BME280;36153;50.960;6.220;2023-02-18T01:46:45;101260.22;;;13.93;69.39
50268;BME280;36153;50.960;6.220;2023-02-18T01:49:49;101253.38;;;14.12;68.63
50268;BME280;36153;50.960;6.220;2023-02-18T01:52:52;101250.03;;;14.27;68.04
50268;BME280;36153;50.960;6.220;2023-02-18T01:55:52;101256.94;;;14.21;68.08
50268;BME280;36153;50.960;6.220;2023-02-18T01:58:54;101247.31;;;14.15;68.46
50268;BME280;36153;50.960;6.220;2023-02-18T02:01:56;101238.59;;;14.17;68.23
50268;BME280;36153;50.960;6.220;2023-02-18T02:04:57;101234.28;;;14.20;68.00
50268;BME280;36153;50.960;6.220;2023-02-18T02:07:58;101225.50;;;14.17;68.07
50268;BME280;36153;50.960;6.220;2023-02-18T02:11:35;101217.63;;;14.10;68.41
50268;BME280;36153;50.960;6.220;2023-02-18T02:41:11;101199.50;;;14.39;66.44
50268;BME280;36153;50.960;6.220;2023-02-18T02:44:21;101187.28;;;14.44;66.31
50268;BME280;36153;50.960;6.220;2023-02-18T02:47:46;101191.69;;;14.47;65.98
50268;BME280;36153;50.960;6.220;2023-02-18T02:50:54;101174.28;;;14.57;65.81
50268;BME280;36153;50.960;6.220;2023-02-18T02:54:09;101156.78;;;14.49;66.12
50268;BME280;36153;50.960;6.220;2023-02-18T03:00:20;101161.06;;;14.38;67.43
50268;BME280;36153;50.960;6.220;2023-02-18T03:10:15;101141.63;;;14.05;69.38
50268;BME280;36153;50.960;6.220;2023-02-18T03:22:30;101136.19;;;13.80;69.76
50268;BME280;36153;50.960;6.220;2023-02-18T03:25:32;101133.66;;;13.88;69.73
50268;BME280;36153;50.960;6.220;2023-02-18T03:28:37;101137.84;;;13.66;70.73
50268;BME280;36153;50.960;6.220;2023-02-18T03:31:38;101128.22;;;13.65;70.80
50268;BME280;36153;50.960;6.220;2023-02-18T03:34:43;101129.22;;;13.78;70.02
50268;BME280;36153;50.960;6.220;2023-02-18T03:37:50;101138.81;;;13.79;69.99
50268;BME280;36153;50.960;6.220;2023-02-18T03:40:52;101131.63;;;13.55;71.53
50268;BME280;36153;50.960;6.220;2023-02-18T03:43:59;101124.59;;;13.47;72.06
50268;BME280;36153;50.960;6.220;2023-02-18T03:47:01;101124.63;;;13.54;71.94
50268;BME280;36153;50.960;6.220;2023-02-18T03:50:01;101129.81;;;13.47;72.74
50268;BME280;36153;50.960;6.220;2023-02-18T03:53:01;101116.75;;;13.51;72.37
50268;BME280;36153;50.960;6.220;2023-02-18T03:56:02;101115.84;;;13.48;72.19
50268;BME280;36153;50.960;6.220;2023-02-18T03:59:03;101109.72;;;13.43;72.50
50268;BME280;36153;50.960;6.220;2023-02-18T04:02:03;101115.84;;;13.45;73.17
50268;BME280;36153;50.960;6.220;2023-02-18T04:05:04;101087.06;;;13.47;72.29
50268;BME280;36153;50.960;6.220;2023-02-18T04:08:04;101087.16;;;13.53;71.79
50268;BME280;36153;50.960;6.220;2023-02-18T04:11:05;101092.41;;;13.58;71.85
50268;BME280;36153;50.960;6.220;2023-02-18T04:14:06;101076.56;;;13.41;72.02
50268;BME280;36153;50.960;6.220;2023-02-18T04:17:06;101084.41;;;13.39;72.23
50268;BME280;36153;50.960;6.220;2023-02-18T04:20:07;101082.69;;;13.43;72.28
50268;BME280;36153;50.960;6.220;2023-02-18T04:23:08;101082.56;;;13.32;72.35
50268;BME280;36153;50.960;6.220;2023-02-18T04:26:08;101091.53;;;13.56;71.42
50268;BME280;36153;50.960;6.220;2023-02-18T04:29:08;101081.78;;;13.36;71.39
50268;BME280;36153;50.960;6.220;2023-02-18T04:32:08;101082.06;;;13.70;70.02
50268;BME280;36153;50.960;6.220;2023-02-18T04:35:09;101076.72;;;13.61;70.04
50268;BME280;36153;50.960;6.220;2023-02-18T04:38:10;101086.31;;;13.57;70.05
50268;BME280;36153;50.960;6.220;2023-02-18T04:41:11;101070.66;;;13.65;69.64
50268;BME280;36153;50.960;6.220;2023-02-18T04:44:11;101065.50;;;13.73;69.10
50268;BME280;36153;50.960;6.220;2023-02-18T04:47:12;101065.38;;;13.56;69.94
50268;BME280;36153;50.960;6.220;2023-02-18T04:50:12;101059.25;;;13.54;70.43
50268;BME280;36153;50.960;6.220;2023-02-18T04:53:12;101063.63;;;13.56;69.67
50268;BME280;36153;50.960;6.220;2023-02-18T04:56:13;101065.50;;;13.73;69.00
50268;BME280;36153;50.960;6.220;2023-02-18T04:59:13;101066.31;;;13.64;69.61
50268;BME280;36153;50.960;6.220;2023-02-18T05:02:13;101067.03;;;13.46;70.71
50268;BME280;36153;50.960;6.220;2023-02-18T05:05:14;101061.84;;;13.51;70.63
50268;BME280;36153;50.960;6.220;2023-02-18T05:08:15;101053.72;;;13.23;71.91
50268;BME280;36153;50.960;6.220;2023-02-18T05:11:15;101065.25;;;13.40;71.32
50268;BME280;36153;50.960;6.220;2023-02-18T05:14:16;101048.50;;;13.23;72.02
50268;BME280;36153;50.960;6.220;2023-02-18T05:17:16;101058.94;;;13.20;72.13
50268;BME280;36153;50.960;6.220;2023-02-18T05:20:17;101051.13;;;13.27;71.96
50268;BME280;36153;50.960;6.220;2023-02-18T05:23:17;101050.47;;;13.48;70.70
50268;BME280;36153;50.960;6.220;2023-02-18T05:26:20;101054.84;;;13.46;70.67
50268;BME280;36153;50.960;6.220;2023-02-18T05:29:20;101054.53;;;13.19;71.62
50268;BME280;36153;50.960;6.220;2023-02-18T05:32:21;101043.13;;;13.10;71.90
50268;BME280;36153;50.960;6.220;2023-02-18T05:35:21;101064.03;;;13.07;72.55
50268;BME280;36153;50.960;6.220;2023-02-18T05:38:22;101052.06;;;13.32;71.31
50268;BME280;36153;50.960;6.220;2023-02-18T05:41:22;101043.28;;;13.27;70.89
50268;BME280;36153;50.960;6.220;2023-02-18T05:44:23;101048.50;;;13.24;71.03
50268;BME280;36153;50.960;6.220;2023-02-18T05:47:29;101038.06;;;13.26;70.40
50268;BME280;36153;50.960;6.220;2023-02-18T05:50:30;101022.50;;;13.35;69.71
50268;BME280;36153;50.960;6.220;2023-02-18T05:53:31;101012.03;;;13.37;69.92
50268;BME280;36153;50.960;6.220;2023-02-18T05:56:31;101011.94;;;13.29;69.70
50268;BME280;36153;50.960;6.220;2023-02-18T05:59:31;101012.84;;;13.32;69.46
50268;BME280;36153;50.960;6.220;2023-02-18T06:02:32;100997.25;;;13.40;68.92
50268;BME280;36153;50.960;6.220;2023-02-18T06:05:32;100982.44;;;13.42;68.30
50268;BME280;36153;50.960;6.220;2023-02-18T06:08:32;100987.69;;;13.45;67.86
50268;BME280;36153;50.960;6.220;2023-02-18T06:11:33;100968.63;;;13.65;67.10
50268;BME280;36153;50.960;6.220;2023-02-18T06:14:34;100988.59;;;13.51;66.96
50268;BME280;36153;50.960;6.220;2023-02-18T06:17:34;100992.00;;;13.39;67.32
50268;BME280;36153;50.960;6.220;2023-02-18T06:20:35;100978.84;;;13.31;67.27
50268;BME280;36153;50.960;6.220;2023-02-18T06:23:35;100978.16;;;13.55;66.27
50268;BME280;36153;50.960;6.220;2023-02-18T06:26:35;100979.84;;;13.48;66.37
50268;BME280;36153;50.960;6.220;2023-02-18T06:29:36;100991.19;;;13.46;66.38
50268;BME280;36153;50.960;6.220;2023-02-18T06:32:36;100977.06;;;13.27;66.74
50268;BME280;36153;50.960;6.220;2023-02-18T06:35:37;100982.28;;;13.27;66.49
50268;BME280;36153;50.960;6.220;2023-02-18T06:38:39;100989.19;;;13.19;66.75
50268;BME280;36153;50.960;6.220;2023-02-18T06:41:40;100978.81;;;13.28;66.76
50268;BME280;36153;50.960;6.220;2023-02-18T06:44:40;100979.50;;;13.07;66.82
50268;BME280;36153;50.960;6.220;2023-02-18T06:47:41;100990.03;;;13.14;66.85
50268;BME280;36153;50.960;6.220;2023-02-18T06:50:41;100966.53;;;13.18;66.37
50268;BME280;36153;50.960;6.220;2023-02-18T06:53:42;100975.31;;;13.26;66.26
50268;BME280;36153;50.960;6.220;2023-02-18T06:56:42;100989.44;;;13.43;65.42
50268;BME280;36153;50.960;6.220;2023-02-18T06:59:43;100985.19;;;13.61;64.83
50268;BME280;36153;50.960;6.220;2023-02-18T07:02:43;100970.31;;;13.51;65.38
50268;BME280;36153;50.960;6.220;2023-02-18T07:05:44;101004.97;;;13.26;66.29
50268;BME280;36153;50.960;6.220;2023-02-18T07:08:44;100982.16;;;13.08;67.50
50268;BME280;36153;50.960;6.220;2023-02-18T07:11:44;100981.25;;;13.09;67.30
50268;BME280;36153;50.960;6.220;2023-02-18T07:14:45;100979.56;;;13.11;67.44
50268;BME280;36153;50.960;6.220;2023-02-18T07:17:45;101000.47;;;13.14;67.10
50268;BME280;36153;50.960;6.220;2023-02-18T07:20:45;101003.88;;;13.04;67.50
50268;BME280;36153;50.960;6.220;2023-02-18T07:23:46;101020.41;;;13.00;67.77
50268;BME280;36153;50.960;6.220;2023-02-18T07:26:46;101011.19;;;12.53;69.70
50268;BME280;36153;50.960;6.220;2023-02-18T07:29:47;101012.94;;;12.54;70.14
50268;BME280;36153;50.960;6.220;2023-02-18T07:32:47;101003.38;;;12.55;70.24
50268;BME280;36153;50.960;6.220;2023-02-18T07:35:55;101012.19;;;12.64;68.73
50268;BME280;36153;50.960;6.220;2023-02-18T07:38:56;101018.06;;;12.46;68.08
50268;BME280;36153;50.960;6.220;2023-02-18T07:41:56;101010.63;;;12.80;66.72
50268;BME280;36153;50.960;6.220;2023-02-18T07:44:56;101015.69;;;12.65;66.43
50268;BME280;36153;50.960;6.220;2023-02-18T07:47:57;101009.75;;;12.81;65.03
50268;BME280;36153;50.960;6.220;2023-02-18T07:50:57;101021.31;;;13.05;64.19
50268;BME280;36153;50.960;6.220;2023-02-18T07:53:57;101011.41;;;12.73;64.39
50268;BME280;36153;50.960;6.220;2023-02-18T07:56:58;101034.03;;;12.71;63.78
50268;BME280;36153;50.960;6.220;2023-02-18T07:59:58;101041.38;;;13.09;62.89
50268;BME280;36153;50.960;6.220;2023-02-18T08:02:58;101028.03;;;12.83;63.34
50268;BME280;36153;50.960;6.220;2023-02-18T08:05:59;101017.69;;;12.92;63.14
50268;BME280;36153;50.960;6.220;2023-02-18T08:09:00;101040.50;;;13.06;62.95
50268;BME280;36153;50.960;6.220;2023-02-18T08:12:00;101022.81;;;12.81;63.55
50268;BME280;36153;50.960;6.220;2023-02-18T08:15:01;101032.34;;;12.76;63.89
50268;BME280;36153;50.960;6.220;2023-02-18T08:18:01;101036.16;;;13.09;62.83
50268;BME280;36153;50.960;6.220;2023-02-18T08:21:02;101038.59;;;12.91;62.89
50268;BME280;36153;50.960;6.220;2023-02-18T08:24:02;101040.22;;;12.81;63.38
50268;BME280;36153;50.960;6.220;2023-02-18T08:27:03;101042.97;;;12.92;63.05
50268;BME280;36153;50.960;6.220;2023-02-18T08:30:04;101049.44;;;13.29;62.21
50268;BME280;36153;50.960;6.220;2023-02-18T08:33:04;101053.59;;;13.10;62.79
50268;BME280;36153;50.960;6.220;2023-02-18T08:36:06;101057.38;;;13.39;61.62
50268;BME280;36153;50.960;6.220;2023-02-18T08:39:06;101067.50;;;13.08;62.58
50268;BME280;36153;50.960;6.220;2023-02-18T08:42:07;101062.59;;;13.37;62.23
50268;BME280;36153;50.960;6.220;2023-02-18T08:45:07;101071.34;;;13.42;61.87
50268;BME280;36153;50.960;6.220;2023-02-18T08:48:09;101036.44;;;13.37;61.96
50268;BME280;36153;50.960;6.220;2023-02-18T08:51:21;101051.88;;;13.12;62.39
50268;BME280;36153;50.960;6.220;2023-02-18T08:54:21;101050.16;;;13.16;62.43
50268;BME280;36153;50.960;6.220;2023-02-18T08:57:22;101037.03;;;13.10;62.48
50268;BME280;36153;50.960;6.220;2023-02-18T09:00:23;101046.66;;;13.12;62.59
50268;BME280;36153;50.960;6.220;2023-02-18T09:03:23;101038.91;;;13.23;62.11
50268;BME280;36153;50.960;6.220;2023-02-18T09:06:24;101033.06;;;13.49;61.93
50268;BME280;36153;50.960;6.220;2023-02-18T09:09:24;101052.94;;;13.35;61.96
50268;BME280;36153;50.960;6.220;2023-02-18T09:12:24;101025.25;;;13.55;61.64
50268;BME280;36153;50.960;6.220;2023-02-18T09:15:25;101029.41;;;13.33;62.36
50268;BME280;36153;50.960;6.220;2023-02-18T09:18:25;101021.53;;;13.28;62.08
50268;BME280;36153;50.960;6.220;2023-02-18T09:21:26;101025.84;;;13.25;62.33
50268;BME280;36153;50.960;6.220;2023-02-18T09:24:26;101019.16;;;13.58;61.18
50268;BME280;36153;50.960;6.220;2023-02-18T09:50:48;100995.09;;;14.11;59.87
50268;BME280;36153;50.960;6.220;2023-02-18T09:53:51;100993.34;;;14.13;59.50
50268;BME280;36153;50.960;6.220;2023-02-18T09:56:52;101011.56;;;13.92;60.23
50268;BME280;36153;50.960;6.220;2023-02-18T10:00:03;101005.41;;;13.83;60.53
50268;BME280;36153;50.960;6.220;2023-02-18T10:03:11;101015.06;;;13.97;60.73
50268;BME280;36153;50.960;6.220;2023-02-18T10:06:29;101001.91;;;13.85;61.76
50268;BME280;36153;50.960;6.220;2023-02-18T10:09:35;101008.72;;;13.61;62.57
50268;BME280;36153;50.960;6.220;2023-02-18T10:12:36;101001.66;;;13.44;62.79
50268;BME280;36153;50.960;6.220;2023-02-18T10:15:37;100989.31;;;13.31;62.73
50268;BME280;36153;50.960;6.220;2023-02-18T10:18:43;101007.78;;;13.51;61.59
50268;BME280;36153;50.960;6.220;2023-02-18T10:21:45;101002.69;;;13.70;61.52
50268;BME280;36153;50.960;6.220;2023-02-18T10:24:55;101008.63;;;13.48;61.49
50268;BME280;36153;50.960;6.220;2023-02-18T10:27:57;100988.59;;;13.51;61.98
50268;BME280;36153;50.960;6.220;2023-02-18T10:31:06;101031.03;;;13.19;63.70
50268;BME280;36153;50.960;6.220;2023-02-18T10:37:59;101018.13;;;13.37;63.85
50268;BME280;36153;50.960;6.220;2023-02-18T10:41:20;101018.94;;;13.33;64.87
50268;BME280;36153;50.960;6.220;2023-02-18T10:47:57;101055.47;;;13.24;67.38
50268;BME280;36153;50.960;6.220;2023-02-18T10:51:18;101054.38;;;13.00;67.79
50268;BME280;36153;50.960;6.220;2023-02-18T10:54:25;101041.25;;;12.97;68.51
50268;BME280;36153;50.960;6.220;2023-02-18T10:57:26;101046.69;;;13.15;68.01
50268;BME280;36153;50.960;6.220;2023-02-18T11:00:27;101050.06;;;13.07;67.96
50268;BME280;36153;50.960;6.220;2023-02-18T11:03:47;101052.03;;;13.29;67.99
50268;BME280;36153;50.960;6.220;2023-02-18T11:06:50;101042.00;;;12.84;69.26
50268;BME280;36153;50.960;6.220;2023-02-18T11:09:53;101040.19;;;12.78;69.51
50268;BME280;36153;50.960;6.220;2023-02-18T11:13:00;101042.66;;;12.64;69.64
50268;BME280;36153;50.960;6.220;2023-02-18T11:16:05;101046.44;;;12.91;69.29
50268;BME280;36153;50.960;6.220;2023-02-18T11:25:32;101042.88;;;12.84;69.96
50268;BME280;36153;50.960;6.220;2023-02-18T11:28:48;101059.22;;;12.66;70.77
50268;BME280;36153;50.960;6.220;2023-02-18T11:31:53;101063.41;;;12.52;71.24
50268;BME280;36153;50.960;6.220;2023-02-18T11:34:55;101051.22;;;12.54;71.54
50268;BME280;36153;50.960;6.220;2023-02-18T11:37:56;101057.06;;;12.34;72.72
50268;BME280;36153;50.960;6.220;2023-02-18T11:41:05;101045.31;;;12.67;71.73
50268;BME280;36153;50.960;6.220;2023-02-18T11:47:33;101056.72;;;12.77;71.06
50268;BME280;36153;50.960;6.220;2023-02-18T11:50:34;101039.13;;;12.62;71.41
50268;BME280;36153;50.960;6.220;2023-02-18T11:53:35;101034.00;;;12.67;71.55
50268;BME280;36153;50.960;6.220;2023-02-18T11:56:37;101037.50;;;12.72;71.14
50268;BME280;36153;50.960;6.220;2023-02-18T11:59:39;101034.31;;;12.99;70.83
50268;BME280;36153;50.960;6.220;2023-02-18T12:02:40;101025.25;;;12.66;71.85
50268;BME280;36153;50.960;6.220;2023-02-18T12:05:41;101037.78;;;12.98;70.96
50268;BME280;36153;50.960;6.220;2023-02-18T12:08:50;101041.28;;;12.98;70.94
50268;BME280;36153;50.960;6.220;2023-02-18T12:11:54;101037.66;;;12.86;70.98
50268;BME280;36153;50.960;6.220;2023-02-18T12:14:55;101033.38;;;12.92;71.31
50268;BME280;36153;50.960;6.220;2023-02-18T12:18:21;101032.53;;;12.96;71.18
50268;BME280;36153;50.960;6.220;2023-02-18T12:21:32;101041.25;;;12.97;71.16
50268;BME280;36153;50.960;6.220;2023-02-18T12:31:10;101036.28;;;13.25;69.86
50268;BME280;36153;50.960;6.220;2023-02-18T12:41:51;101040.50;;;13.09;70.37
50268;BME280;36153;50.960;6.220;2023-02-18T12:45:16;101045.31;;;13.55;69.09
50268;BME280;36153;50.960;6.220;2023-02-18T13:05:42;101053.19;;;13.59;69.49
50268;BME280;36153;50.960;6.220;2023-02-18T13:18:25;101048.06;;;13.73;70.36
50268;BME280;36153;50.960;6.220;2023-02-18T13:21:28;101053.38;;;13.87;69.25
50268;BME280;36153;50.960;6.220;2023-02-18T13:24:38;101055.03;;;13.74;70.04
50268;BME280;36153;50.960;6.220;2023-02-18T13:28:09;101044.56;;;13.68;70.55
50268;BME280;36153;50.960;6.220;2023-02-18T13:31:17;101046.41;;;13.86;69.54
50268;BME280;36153;50.960;6.220;2023-02-18T13:34:53;101054.97;;;13.63;70.30
50268;BME280;36153;50.960;6.220;2023-02-18T13:41:17;101034.28;;;13.97;69.03
50268;BME280;36153;50.960;6.220;2023-02-18T13:47:41;101037.59;;;13.76;69.92
50268;BME280;36153;50.960;6.220;2023-02-18T13:50:42;101046.13;;;13.47;70.24
50268;BME280;36153;50.960;6.220;2023-02-18T13:53:49;101053.38;;;13.82;69.41
50268;BME280;36153;50.960;6.220;2023-02-18T13:56:52;101027.94;;;13.63;69.37
50268;BME280;36153;50.960;6.220;2023-02-18T13:59:58;101040.97;;;13.58;69.74
50268;BME280;36153;50.960;6.220;2023-02-18T14:04:02;101035.78;;;13.64;69.83
50268;BME280;36153;50.960;6.220;2023-02-18T14:07:16;101043.44;;;13.40;70.62
50268;BME280;36153;50.960;6.220;2023-02-18T14:13:23;101048.59;;;13.34;70.89
50268;BME280;36153;50.960;6.220;2023-02-18T14:16:24;101041.59;;;13.31;71.35
50268;BME280;36153;50.960;6.220;2023-02-18T14:19:28;101039.78;;;13.24;71.79
50268;BME280;36153;50.960;6.220;2023-02-18T14:22:49;101031.28;;;13.46;70.73
50268;BME280;36153;50.960;6.220;2023-02-18T14:29:18;101042.63;;;13.48;70.67
50268;BME280;36153;50.960;6.220;2023-02-18T14:32:20;101031.31;;;13.51;70.45
50268;BME280;36153;50.960;6.220;2023-02-18T14:35:42;101039.25;;;13.60;70.22
50268;BME280;36153;50.960;6.220;2023-02-18T14:38:56;101037.56;;;13.65;70.10
50268;BME280;36153;50.960;6.220;2023-02-18T14:42:37;101034.09;;;13.68;69.74
50268;BME280;36153;50.960;6.220;2023-02-18T14:52:16;101043.72;;;13.75;69.64
50268;BME280;36153;50.960;6.220;2023-02-18T14:55:26;101033.22;;;13.71;70.05
50268;BME280;36153;50.960;6.220;2023-02-18T14:58:31;101033.16;;;13.60;70.78
50268;BME280;36153;50.960;6.220;2023-02-18T15:01:34;101034.75;;;13.45;72.02
50268;BME280;36153;50.960;6.220;2023-02-18T15:04:35;101032.00;;;13.33;71.76
50268;BME280;36153;50.960;6.220;2023-02-18T15:07:35;101037.91;;;13.12;72.84
50268;BME280;36153;50.960;6.220;2023-02-18T15:10:43;101031.19;;;13.36;72.23
50268;BME280;36153;50.960;6.220;2023-02-18T15:13:45;101039.13;;;13.45;71.80
50268;BME280;36153;50.960;6.220;2023-02-18T15:16:47;101034.03;;;13.66;71.31
50268;BME280;36153;50.960;6.220;2023-02-18T15:19:54;101033.88;;;13.40;71.58
50268;BME280;36153;50.960;6.220;2023-02-18T15:22:55;101029.63;;;13.58;71.29
50268;BME280;36153;50.960;6.220;2023-02-18T15:25:56;101027.97;;;13.72;70.83
50268;BME280;36153;50.960;6.220;2023-02-18T15:29:04;101012.19;;;13.57;71.51
50268;BME280;36153;50.960;6.220;2023-02-18T15:32:20;101027.91;;;13.60;71.58
50268;BME280;36153;50.960;6.220;2023-02-18T15:35:22;101028.78;;;13.60;71.31
50268;BME280;36153;50.960;6.220;2023-02-18T15:38:25;101034.94;;;13.64;70.68
50268;BME280;36153;50.960;6.220;2023-02-18T15:41:26;101022.84;;;13.85;70.32
50268;BME280;36153;50.960;6.220;2023-02-18T15:44:31;101022.91;;;13.94;69.84
50268;BME280;36153;50.960;6.220;2023-02-18T15:47:32;101055.06;;;13.80;69.84
50268;BME280;36153;50.960;6.220;2023-02-18T15:50:37;101038.66;;;14.03;69.04
50268;BME280;36153;50.960;6.220;2023-02-18T15:53:47;101052.44;;;13.77;69.69
50268;BME280;36153;50.960;6.220;2023-02-18T15:56:51;101043.84;;;13.97;69.00
50268;BME280;36153;50.960;6.220;2023-02-18T15:59:55;101044.69;;;13.90;69.20
50268;BME280;36153;50.960;6.220;2023-02-18T16:03:14;101030.72;;;13.88;69.21
50268;BME280;36153;50.960;6.220;2023-02-18T16:06:22;101049.81;;;13.76;69.12
50268;BME280;36153;50.960;6.220;2023-02-18T16:09:31;101035.22;;;14.10;68.15
50268;BME280;36153;50.960;6.220;2023-02-18T16:12:33;101032.47;;;13.90;68.54
50268;BME280;36153;50.960;6.220;2023-02-18T16:15:38;101036.81;;;13.83;68.82
50268;BME280;36153;50.960;6.220;2023-02-18T16:18:40;101032.44;;;13.86;68.63
50268;BME280;36153;50.960;6.220;2023-02-18T16:21:43;101035.78;;;13.64;69.28
50268;BME280;36153;50.960;6.220;2023-02-18T16:24:48;101029.81;;;13.79;69.10
50268;BME280;36153;50.960;6.220;2023-02-18T16:30:57;101022.91;;;13.97;68.23
50268;BME280;36153;50.960;6.220;2023-02-18T16:33:57;101029.00;;;13.94;68.36
50268;BME280;36153;50.960;6.220;2023-02-18T16:36:58;101013.28;;;13.88;68.04
50268;BME280;36153;50.960;6.220;2023-02-18T16:43:28;101037.59;;;13.73;68.92
50268;BME280;36153;50.960;6.220;2023-02-18T16:46:31;101021.13;;;13.87;68.43
50268;BME280;36153;50.960;6.220;2023-02-18T16:49:34;101024.66;;;13.95;68.30
50268;BME280;36153;50.960;6.220;2023-02-18T16:52:34;101031.53;;;13.80;68.47
50268;BME280;36153;50.960;6.220;2023-02-18T16:55:36;101038.41;;;13.66;69.74
50268;BME280;36153;50.960;6.220;2023-02-18T16:58:36;101028.97;;;13.87;69.45
50268;BME280;36153;50.960;6.220;2023-02-18T17:01:40;101034.94;;;13.64;70.40
50268;BME280;36153;50.960;6.220;2023-02-18T17:04:43;101040.91;;;13.47;71.15
50268;BME280;36153;50.960;6.220;2023-02-18T17:07:43;101044.47;;;13.56;70.40
50268;BME280;36153;50.960;6.220;2023-02-18T17:10:46;101035.72;;;13.55;70.71
50268;BME280;36153;50.960;6.220;2023-02-18T17:13:49;101033.19;;;13.64;70.14
50268;BME280;36153;50.960;6.220;2023-02-18T17:16:51;101035.81;;;13.68;70.04
50268;BME280;36153;50.960;6.220;2023-02-18T17:19:52;101034.13;;;13.74;69.46
50268;BME280;36153;50.960;6.220;2023-02-18T17:22:53;101039.41;;;13.82;69.07
50268;BME280;36153;50.960;6.220;2023-02-18T17:25:55;101054.28;;;13.88;68.64
50268;BME280;36153;50.960;6.220;2023-02-18T17:28:57;101035.16;;;14.04;68.02
50268;BME280;36153;50.960;6.220;2023-02-18T17:31:59;101029.81;;;13.84;68.39
50268;BME280;36153;50.960;6.220;2023-02-18T17:34:59;101030.59;;;13.69;68.82
50268;BME280;36153;50.960;6.220;2023-02-18T17:38:00;101028.13;;;13.94;68.20
50268;BME280;36153;50.960;6.220;2023-02-18T17:41:00;101029.66;;;13.61;69.08
50268;BME280;36153;50.960;6.220;2023-02-18T17:44:01;101026.44;;;14.00;67.70
50268;BME280;36153;50.960;6.220;2023-02-18T17:47:04;101024.75;;;14.13;67.30
50268;BME280;36153;50.960;6.220;2023-02-18T17:50:04;101021.13;;;13.90;67.87
50268;BME280;36153;50.960;6.220;2023-02-18T17:53:05;101021.19;;;13.99;67.49
50268;BME280;36153;50.960;6.220;2023-02-18T17:56:14;101021.13;;;13.90;68.01
50268;BME280;36153;50.960;6.220;2023-02-18T17:59:14;101027.94;;;13.63;68.44
50268;BME280;36153;50.960;6.220;2023-02-18T18:02:33;101033.44;;;14.06;67.22
50268;BME280;36153;50.960;6.220;2023-02-18T18:05:36;101026.28;;;13.76;68.15
50268;BME280;36153;50.960;6.220;2023-02-18T18:08:36;101039.41;;;13.82;67.96
50268;BME280;36153;50.960;6.220;2023-02-18T18:11:37;101051.63;;;13.85;67.74
50268;BME280;36153;50.960;6.220;2023-02-18T18:14:41;101048.25;;;14.01;67.04
50268;BME280;36153;50.960;6.220;2023-02-18T18:17:41;101043.16;;;14.24;66.36
50268;BME280;36153;50.960;6.220;2023-02-18T18:20:44;101042.09;;;13.94;67.19
50268;BME280;36153;50.960;6.220;2023-02-18T18:23:45;101032.34;;;13.70;68.31
50268;BME280;36153;50.960;6.220;2023-02-18T18:26:49;101035.88;;;13.74;68.16
50268;BME280;36153;50.960;6.220;2023-02-18T18:29:49;101035.03;;;13.82;67.63
50268;BME280;36153;50.960;6.220;2023-02-18T18:32:50;101029.91;;;13.96;67.37